Fort Lauderdale, FL

7:58 AM EDT on September 23, 2014 (GMT -0400)
ICW @ Oakland Park Bridge | Change Station
CLOSE
Current Station
Personal Weather Station
Location: Ft. Lauderdale, FL
Elevation: 8 ft
Nearby Weather Stations

Elev 8 ft 26.16 °N, 80.11 °W | Updated 4 seconds ago

Partly Cloudy
Partly Cloudy
80.1 °F
Feels Like 85 °F
N
0.0
Wind Variable Wind from East
Gusts 6.0 mph

Today
High -- | Low -- °F
--% Chance of Precip.
Yesterday
High -- | Low -- °F
Precip. -- in
7:09 AM 7:15 PM
Waning Crescent, 1% visible
Pressure 29.98 in
Visibility 10.0 miles
Clouds Scattered Clouds 3000 ft
Scattered Clouds 4000 ft
Heat Index 85 °F
Dew Point 74 °F
Humidity 84%
Rainfall 0.37 in
Snow Depth Not available.
UV 0 out of 12
Pollen .30 out of 12
Air Quality Not available.
Flu Activity Not available.
METAR KFXE 231053Z 08010KT 10SM SCT030 SCT040 25/25 A2997 RMK AO2 SLP151 T02500250

More Conditions Fewer Conditions

Pressure 29.98 in
Visibility 10.0 miles
Clouds Scattered Clouds 3000 ft
Scattered Clouds 4000 ft
Heat Index 85 °F
Dew Point 74 °F
Humidity 84%
Rainfall 0.37 in
Snow Depth Not available.
UV 0 out of 12
Pollen .30 out of 12
Air Quality Not available.
Flu Activity Not available.
METAR KFXE 231053Z 08010KT 10SM SCT030 SCT040 25/25 A2997 RMK AO2 SLP151 T02500250

More Conditions Fewer Conditions

Nowcast | as of 7:41 am EDT on September 23, 2014

Showers will continue to move into the Atlantic waters to the east of Miami Dade County...including Biscayne Bay. Showers will also affect most of the Miami Metro area. Occasional thunderstorms are possible with this activity. These showers will move eastward about 10 knots and produce brief and at times heavy downpours and gusty winds to near 25 knots with the heavier showers.

×

10-Day Weather Forecast

Almanac

Astronomy

Sep. 23, 2014 Rise Set
Actual Time 7:09 AM EDT 7:15 PM EDT
Civil Twilight 6:46 AM EDT 7:38 PM EDT
Nautical Twilight 6:19 AM EDT 8:05 PM EDT
Astronomical Twilight 5:52 AM EDT 8:32 PM EDT
Moon 6:33 AM EDT 6:55 PM EDT
Length of Visible Light 12h 52m
Length of Day
12h 06m
Tomorrow will be 1m 32s shorter.
Waning Crescent, 1% of the Moon is Illuminated
Today
Waning Crescent
Sep 24
New
Oct 1
First Quarter
Oct 8
Full
Oct 15
Last Quarter

Today's Extremes

State Highs State Lows

Community

WunderPhotos

Upload Photos

1,755,644 photos uploaded!

WunderBlogs® & News

By Dr. Jeff Masters
Director of Meteorology, Weather Underground
By Kari Strenfel
Meteorologist, Weather Underground
By Christopher C. Burt
Weather Historian, Weather Underground
September 23, 2014
September 23, 2014
September 23, 2014

Nearby

Air Quality

  Air Quality AQ Index Pollutant
Tuesday Good
OZONE

Snow Depth

Station Depth Elevation
No new snow has been reported.

Earthquake Activity

City Distance Mag. Time & Date
No recent earthquake activity has been reported nearby.
Minimum magnitude displayed is 2.5.

Coastal Water Temperatures

Place Temperature
Virginia Key, FL 84.0 °F

Nearby Weather Stations